Time;durP1;ratioP1;P1;durP2;ratioP2;P2;SDS_P1;SDS_P2;PMS_P1;PMS_P2;Temp;Humidity;BMP_temperature;BMP_pressure;BME280_temperature;BME280_humidity;BME280_pressure;Samples;Min_cycle;Max_cycle;Signal;HPM_P1;HPM_P2
2021/04/13 05:56:55;;;;;;;6.82;3.95;;;;;;;;;;10619844;27;20388;-82
2021/04/13 06:01:56;;;;;;;7.70;3.70;;;;;;;;;;10600382;28;20031;-83
2021/04/13 06:06:57;;;;;;;5.00;3.20;;;;;;;;;;10600308;28;20032;-84
2021/04/13 06:11:59;;;;;;;6.63;3.50;;;;;;;;;;10620231;28;20049;-84
2021/04/13 06:17:10;;;;;;;4.65;2.80;;;;;;;;;;10594207;28;20027;-85
2021/04/13 06:22:12;;;;;;;5.20;3.50;;;;;;;;;;10586784;28;20028;-84
2021/04/13 06:27:13;;;;;;;6.15;3.72;;;;;;;;;;10607721;28;20056;-86
2021/04/13 06:32:15;;;;;;;3.92;2.47;;;;;;;;;;10591012;28;20118;-86
2021/04/13 06:37:17;;;;;;;4.88;3.20;;;;;;;;;;10602208;28;20031;-86
2021/04/13 06:42:37;;;;;;;4.43;3.50;;;;;;;;;;10601655;28;20058;-85
2021/04/13 06:47:52;;;;;;;8.00;4.68;;;;;;;;;;10581246;28;20028;-85
2021/04/13 06:53:18;;;;;;;6.78;3.50;;;;;;;;;;10588836;28;20024;-85
2021/04/13 06:58:48;;;;;;;4.15;2.45;;;;;;;;;;10579679;28;20016;-86
2021/04/13 07:03:49;;;;;;;4.95;3.10;;;;;;;;;;10516464;28;20449;-86
2021/04/13 07:08:53;;;;;;;3.22;2.03;;;;;;;;;;10564207;28;20035;-85
2021/04/13 07:14:03;;;;;;;2.88;1.85;;;;;;;;;;10549057;28;20024;-84
2021/04/13 07:19:21;;;;;;;3.50;1.50;;;;;;;;;;10545756;28;20096;-83
2021/04/13 07:24:29;;;;;;;3.80;2.00;;;;;;;;;;10542062;28;20039;-84
2021/04/13 07:29:34;;;;;;;4.47;1.90;;;;;;;;;;10544135;28;20043;-84
2021/04/13 07:34:36;;;;;;;4.90;1.70;;;;;;;;;;10542159;28;20031;-85
2021/04/13 07:39:39;;;;;;;4.82;1.85;;;;;;;;;;10540247;28;20024;-86
2021/04/13 07:44:59;;;;;;;5.28;1.40;;;;;;;;;;10540840;28;20032;-82
2021/04/13 07:50:00;;;;;;;4.22;1.80;;;;;;;;;;10540949;28;20111;-83
2021/04/13 07:55:03;;;;;;;3.13;1.40;;;;;;;;;;10538824;28;20063;-85
2021/04/13 08:00:19;;;;;;;9.15;2.60;;;;;;;;;;10540650;28;20028;-84
2021/04/13 08:05:39;;;;;;;6.97;2.58;;;;;;;;;;10539869;28;20064;-86
2021/04/13 08:10:40;;;;;;;5.60;2.05;;;;;;;;;;10500649;28;20074;-85
2021/04/13 08:15:49;;;;;;;4.65;1.70;;;;;;;;;;10498002;28;20027;-85
2021/04/13 08:20:52;;;;;;;3.25;1.45;;;;;;;;;;10515970;28;20032;-86
2021/04/13 08:25:57;;;;;;;5.10;1.52;;;;;;;;;;10493784;28;20028;-83
2021/04/13 08:36:27;;;;;;;5.95;3.63;;;;;;;;;;10512451;28;20025;-85
2021/04/13 08:41:44;;;;;;;4.03;1.83;;;;;;;;;;10497898;28;20043;-84
2021/04/13 08:47:00;;;;;;;6.25;2.10;;;;;;;;;;10504575;28;20024;-83
2021/04/13 08:52:21;;;;;;;4.63;1.98;;;;;;;;;;10502365;28;20029;-84
2021/04/13 08:57:31;;;;;;;4.63;1.80;;;;;;;;;;10503101;28;20052;-82
2021/04/13 09:02:34;;;;;;;6.68;1.75;;;;;;;;;;10517159;28;20021;-83
2021/04/13 09:07:48;;;;;;;4.25;2.00;;;;;;;;;;10520264;28;20029;-82
2021/04/13 09:12:53;;;;;;;3.67;1.48;;;;;;;;;;10510319;28;20021;-84
2021/04/13 09:18:07;;;;;;;3.97;1.52;;;;;;;;;;10500516;28;20024;-84
2021/04/13 09:23:25;;;;;;;4.45;1.52;;;;;;;;;;10509838;28;20020;-83
2021/04/13 09:28:40;;;;;;;5.40;1.58;;;;;;;;;;10492039;28;20028;-84
2021/04/13 09:33:42;;;;;;;2.67;1.20;;;;;;;;;;10507061;28;20025;-83
2021/04/13 09:39:02;;;;;;;4.00;1.30;;;;;;;;;;10490419;28;20028;-83
2021/04/13 09:44:24;;;;;;;3.25;1.27;;;;;;;;;;10493590;28;20506;-85
2021/04/13 09:49:45;;;;;;;3.88;1.35;;;;;;;;;;10495292;28;20047;-83
2021/04/13 09:54:50;;;;;;;3.63;1.10;;;;;;;;;;10492687;28;20032;-81
2021/04/13 09:59:57;;;;;;;6.80;1.70;;;;;;;;;;10491924;28;20471;-86
2021/04/13 10:05:10;;;;;;;4.22;1.10;;;;;;;;;;10492227;28;20058;-82
2021/04/13 10:10:37;;;;;;;3.33;0.93;;;;;;;;;;10511477;28;20024;-83
2021/04/13 10:15:57;;;;;;;3.30;1.30;;;;;;;;;;10493700;28;20094;-83
2021/04/13 10:20:58;;;;;;;;;;;;;;;;;;10491044;28;20031;-83
2021/04/13 10:25:59;;;;;;;6.68;2.53;;;;;;;;;;10491563;28;19904;-84
2021/04/13 10:31:15;;;;;;;3.42;1.30;;;;;;;;;;10492607;28;20028;-84
2021/04/13 10:36:35;;;;;;;4.40;1.27;;;;;;;;;;10491851;28;20031;-83
2021/04/13 10:41:42;;;;;;;4.82;1.33;;;;;;;;;;10516509;28;20029;-81
2021/04/13 10:47:02;;;;;;;2.22;1.00;;;;;;;;;;10500842;28;20541;-84
2021/04/13 10:52:22;;;;;;;5.65;1.23;;;;;;;;;;10501358;28;20052;-85
2021/04/13 10:57:41;;;;;;;2.53;1.15;;;;;;;;;;10499271;28;20016;-83
2021/04/13 11:03:01;;;;;;;2.30;0.77;;;;;;;;;;10499267;28;20390;-85
2021/04/13 11:08:23;;;;;;;3.28;1.02;;;;;;;;;;10519562;28;20029;-85
2021/04/13 11:13:43;;;;;;;2.42;0.88;;;;;;;;;;10502578;28;20020;-83
2021/04/13 11:19:16;;;;;;;1.92;0.80;;;;;;;;;;10503769;28;20024;-84
2021/04/13 11:24:27;;;;;;;2.28;0.90;;;;;;;;;;10500828;28;20132;-84
2021/04/13 11:29:48;;;;;;;3.13;0.80;;;;;;;;;;10512968;28;20040;-82
2021/04/13 11:35:00;;;;;;;3.35;0.88;;;;;;;;;;10516143;28;20078;-82
2021/04/13 11:40:10;;;;;;;3.47;0.80;;;;;;;;;;10504252;28;20025;-85
2021/04/13 11:45:25;;;;;;;2.45;0.90;;;;;;;;;;10500196;28;20116;-83
2021/04/13 11:50:26;;;;;;;1.70;0.70;;;;;;;;;;10499052;28;20048;-85
2021/04/13 11:55:30;;;;;;;3.00;0.88;;;;;;;;;;10499399;28;20036;-83
2021/04/13 12:00:32;;;;;;;2.47;0.90;;;;;;;;;;10516509;28;20021;-84
2021/04/13 12:05:33;;;;;;;2.20;0.70;;;;;;;;;;10498381;28;20111;-84
2021/04/13 12:16:50;;;;;;;2.00;0.70;;;;;;;;;;10369277;28;20042;-86
2021/04/13 12:21:56;;;;;;;1.42;0.68;;;;;;;;;;10343304;28;20041;-84
2021/04/13 12:26:58;;;;;;;2.80;0.75;;;;;;;;;;10309573;28;20038;-86
2021/04/13 12:38:03;;;;;;;2.73;0.90;;;;;;;;;;10322763;28;20018;-87
2021/04/13 12:43:10;;;;;;;2.30;0.80;;;;;;;;;;10309220;28;20043;-86
2021/04/13 12:48:14;;;;;;;1.02;0.70;;;;;;;;;;10353755;28;20108;-84
2021/04/13 12:53:27;;;;;;;2.15;0.82;;;;;;;;;;10369388;28;20032;-88
2021/04/13 12:58:30;;;;;;;2.15;0.75;;;;;;;;;;10367039;28;20118;-84
2021/04/13 13:03:56;;;;;;;2.20;0.88;;;;;;;;;;10367527;28;20026;-86
2021/04/13 13:09:18;;;;;;;2.25;0.70;;;;;;;;;;10387423;28;20452;-86
2021/04/13 13:43:00;;;;;;;1.57;0.90;;;;;;;;;;10386177;28;20030;-89
2021/04/13 13:48:26;;;;;;;1.35;0.55;;;;;;;;;;10370057;28;20033;-86
2021/04/13 13:53:54;;;;;;;2.80;0.80;;;;;;;;;;10393693;28;20049;-86
2021/04/13 14:11:07;;;;;;;2.92;0.75;;;;;;;;;;10371354;28;20038;-85
2021/04/13 14:16:44;;;;;;;1.52;0.70;;;;;;;;;;10259131;28;20051;-87
2021/04/13 14:27:45;;;;;;;1.60;0.80;;;;;;;;;;10265288;29;20023;-87
2021/04/13 14:38:47;;;;;;;2.22;0.82;;;;;;;;;;10184795;29;20435;-87
2021/04/13 14:43:51;;;;;;;1.13;0.60;;;;;;;;;;10187270;29;20035;-85
2021/04/13 14:48:54;;;;;;;1.45;0.70;;;;;;;;;;10309870;28;20046;-85
2021/04/13 14:53:56;;;;;;;1.55;0.55;;;;;;;;;;10371599;28;20484;-86
2021/04/13 14:58:57;;;;;;;1.98;0.60;;;;;;;;;;10370595;28;20105;-86
2021/04/13 15:04:00;;;;;;;2.65;0.88;;;;;;;;;;10372162;28;20032;-87
2021/04/13 15:15:15;;;;;;;1.90;0.70;;;;;;;;;;10341397;28;20477;-85
2021/04/13 15:20:31;;;;;;;3.17;1.20;;;;;;;;;;10323465;28;20045;-87
2021/04/13 15:31:16;;;;;;;3.07;1.00;;;;;;;;;;10387100;28;20021;-84
2021/04/13 15:36:42;;;;;;;2.13;0.95;;;;;;;;;;10368732;28;20053;-84
2021/04/13 15:42:04;;;;;;;1.42;0.70;;;;;;;;;;10370392;28;20026;-87
2021/04/13 15:47:39;;;;;;;2.35;0.77;;;;;;;;;;10389274;28;20034;-86
2021/04/13 15:53:44;;;;;;;2.08;0.70;;;;;;;;;;10325575;28;20114;-83
2021/04/13 16:04:47;;;;;;;2.78;0.90;;;;;;;;;;10308477;28;20110;-83
2021/04/13 16:10:13;;;;;;;1.88;0.68;;;;;;;;;;10320684;28;20046;-87
2021/04/13 16:16:07;;;;;;;1.42;0.60;;;;;;;;;;10302655;28;20058;-85
2021/04/13 18:09:15;;;;;;;2.95;0.95;;;;;;;;;;10453358;23;20071;-86
2021/04/13 18:14:19;;;;;;;0.60;0.50;;;;;;;;;;10506727;28;20517;-85
2021/04/13 18:19:42;;;;;;;1.55;0.88;;;;;;;;;;10511390;28;20040;-87
2021/04/13 18:24:46;;;;;;;0.90;0.60;;;;;;;;;;10529773;28;20021;-83
2021/04/13 18:29:47;;;;;;;2.47;1.20;;;;;;;;;;10528937;28;20029;-86
2021/04/13 18:34:55;;;;;;;1.92;0.90;;;;;;;;;;10496910;28;20037;-84
2021/04/13 18:40:11;;;;;;;1.60;0.90;;;;;;;;;;10512285;28;20077;-85
2021/04/13 18:45:15;;;;;;;1.80;0.80;;;;;;;;;;10513658;28;20051;-86
2021/04/13 18:50:21;;;;;;;3.10;1.20;;;;;;;;;;10514418;28;20025;-86
2021/04/13 18:55:51;;;;;;;2.10;1.02;;;;;;;;;;10517483;28;20041;-83
2021/04/13 19:00:56;;;;;;;1.20;0.90;;;;;;;;;;10506141;28;20025;-85
2021/04/13 19:06:00;;;;;;;2.92;1.23;;;;;;;;;;10519543;28;20044;-85
2021/04/13 19:11:22;;;;;;;2.35;1.15;;;;;;;;;;10520340;28;20035;-86
2021/04/13 19:16:27;;;;;;;1.55;1.10;;;;;;;;;;10518185;28;20028;-84
2021/04/13 19:21:36;;;;;;;2.97;1.80;;;;;;;;;;10518587;28;20048;-85
2021/04/13 19:26:45;;;;;;;4.05;1.20;;;;;;;;;;10490382;28;20112;-86
2021/04/13 19:31:50;;;;;;;3.00;1.53;;;;;;;;;;10462743;28;20110;-86
2021/04/13 19:37:10;;;;;;;2.17;1.10;;;;;;;;;;10457937;28;20283;-86
2021/04/13 19:42:17;;;;;;;1.80;1.00;;;;;;;;;;10457999;28;20112;-87
2021/04/13 19:47:21;;;;;;;1.83;0.93;;;;;;;;;;10454893;28;20033;-87
2021/04/13 19:52:23;;;;;;;1.67;1.13;;;;;;;;;;10457027;28;20025;-86
2021/04/13 19:57:27;;;;;;;2.03;0.90;;;;;;;;;;10455524;28;20036;-86
2021/04/13 20:02:30;;;;;;;1.75;1.10;;;;;;;;;;10455105;28;20051;-86
2021/04/13 20:07:38;;;;;;;1.88;1.00;;;;;;;;;;10489671;28;20043;-85
2021/04/13 20:12:43;;;;;;;1.85;1.20;;;;;;;;;;10475785;28;20009;-85
2021/04/13 20:17:45;;;;;;;1.27;1.00;;;;;;;;;;10464405;28;20108;-86
